createdAt,value
2017-12-26T07:06:20.702Z,7.11
2017-12-26T07:08:47.547Z,7.14
2017-12-26T07:11:14.376Z,7.11
2017-12-26T07:13:41.951Z,7.14
2017-12-26T07:16:09.513Z,7.07
2017-12-26T07:18:36.359Z,7.10
2017-12-26T07:21:09.266Z,7.09
2017-12-26T07:23:36.074Z,7.13
2017-12-26T07:26:02.941Z,7.09
2017-12-26T07:28:29.754Z,7.08
2017-12-26T07:30:56.573Z,7.07
2017-12-26T07:33:23.408Z,7.10
2017-12-26T07:35:50.915Z,7.09
2017-12-26T07:38:17.771Z,7.09
2017-12-26T07:40:44.575Z,7.09
2017-12-26T07:43:11.391Z,7.07
2017-12-26T07:45:38.765Z,7.03
2017-12-26T07:48:05.813Z,7.04
2017-12-26T07:50:32.668Z,7.06
2017-12-26T07:53:00.220Z,7.06
2017-12-26T07:55:27.026Z,7.06
2017-12-26T07:57:53.826Z,7.02
2017-12-26T08:00:20.852Z,6.97
2017-12-26T08:02:47.707Z,7.03
2017-12-26T08:05:14.547Z,6.97
2017-12-26T08:07:42.091Z,7.02
2017-12-26T08:10:08.920Z,6.88
2017-12-26T08:12:35.724Z,6.97
2017-12-26T08:15:02.523Z,6.93
2017-12-26T08:17:29.309Z,6.86
2017-12-26T08:19:56.891Z,6.87
2017-12-26T08:22:23.738Z,6.85
2017-12-26T08:24:50.555Z,6.83
2017-12-26T08:27:17.348Z,6.71
2017-12-26T08:29:44.138Z,6.76
2017-12-26T08:32:10.944Z,6.81
2017-12-26T08:34:37.778Z,6.75
2017-12-26T08:37:04.603Z,6.68
2017-12-26T08:39:31.401Z,6.62
2017-12-26T08:41:58.312Z,6.67
2017-12-26T08:44:25.296Z,6.71
2017-12-26T08:46:52.148Z,6.69
2017-12-26T08:49:18.980Z,6.72
2017-12-26T08:51:46.571Z,6.65
2017-12-26T08:54:13.382Z,6.64
2017-12-26T08:56:40.180Z,6.54
2017-12-26T08:59:07.745Z,6.62
2017-12-26T09:01:34.592Z,6.60
2017-12-26T09:04:01.406Z,6.57
2017-12-26T09:06:28.164Z,6.55
2017-12-26T09:08:55.063Z,6.48
2017-12-26T09:11:21.884Z,6.52
2017-12-26T09:13:48.773Z,6.63
2017-12-26T09:16:15.616Z,6.60
2017-12-26T09:18:42.464Z,6.66
2017-12-26T09:21:09.315Z,6.57
2017-12-26T09:23:36.162Z,6.61
2017-12-26T09:26:03.013Z,6.61
2017-12-26T09:28:29.869Z,6.59
2017-12-26T09:30:56.710Z,6.55
2017-12-26T09:33:23.567Z,6.54
2017-12-26T09:35:50.407Z,6.53
2017-12-26T09:38:17.253Z,6.54
2017-12-26T09:40:44.120Z,6.52
2017-12-26T09:43:10.945Z,6.57
2017-12-26T09:45:37.757Z,6.58
2017-12-26T09:48:04.878Z,6.58
2017-12-26T09:50:32.483Z,6.58
2017-12-26T09:52:59.273Z,6.60
2017-12-26T09:55:26.087Z,6.63
2017-12-26T09:57:53.663Z,6.63
2017-12-26T10:00:21.262Z,6.62
2017-12-26T10:02:48.075Z,6.62
2017-12-26T10:05:14.861Z,6.59
2017-12-26T10:07:42.447Z,6.55
2017-12-26T10:10:10.013Z,6.50
2017-12-26T10:12:36.902Z,6.60
2017-12-26T10:15:03.705Z,6.61
2017-12-26T10:17:30.520Z,6.51
2017-12-26T10:19:57.317Z,6.58
2017-12-26T10:22:24.165Z,6.61
2017-12-26T10:24:51.048Z,6.63
2017-12-26T10:27:17.890Z,6.55
2017-12-26T10:29:44.727Z,6.61
2017-12-26T10:32:11.513Z,6.61
2017-12-26T10:34:38.304Z,6.65
2017-12-26T10:37:05.246Z,6.66
2017-12-26T10:39:32.041Z,6.72
2017-12-26T10:41:58.851Z,6.69
2017-12-26T10:44:25.648Z,6.69
2017-12-26T10:46:52.429Z,6.70
2017-12-26T10:49:20.054Z,6.76
2017-12-26T10:51:46.917Z,6.72
2017-12-26T10:54:13.782Z,6.75
2017-12-26T10:56:40.595Z,6.79
2017-12-26T10:59:08.141Z,6.86
2017-12-26T11:01:34.934Z,6.85
2017-12-26T11:04:02.532Z,6.91
2017-12-26T11:06:29.404Z,6.89
2017-12-26T11:08:56.297Z,6.93
2017-12-26T11:11:23.196Z,6.88
2017-12-26T11:13:49.957Z,6.85
2017-12-26T11:16:16.822Z,6.92
2017-12-26T11:18:44.407Z,6.91
2017-12-26T11:21:11.941Z,6.93
2017-12-26T11:23:38.722Z,6.96
2017-12-26T11:26:05.578Z,6.93
2017-12-26T11:28:32.385Z,6.89
2017-12-26T11:30:59.496Z,6.97
2017-12-26T11:33:26.352Z,7.08
2017-12-26T11:35:53.135Z,7.09
2017-12-26T11:38:19.945Z,7.18
2017-12-26T11:40:46.751Z,7.19
2017-12-26T11:43:13.511Z,7.11
2017-12-26T11:45:40.291Z,7.20
2017-12-26T11:48:07.785Z,7.18
2017-12-26T11:50:34.571Z,7.17
2017-12-26T11:53:01.445Z,7.16
2017-12-26T11:55:28.237Z,7.18
2017-12-26T11:57:55.757Z,7.26
2017-12-26T12:00:22.541Z,7.30
2017-12-26T12:02:49.317Z,7.34
2017-12-26T12:05:16.152Z,7.42
2017-12-26T12:07:42.925Z,7.37
2017-12-26T12:10:09.735Z,7.29
2017-12-26T12:12:36.524Z,7.27
2017-12-26T12:15:03.376Z,7.28
2017-12-26T12:17:30.202Z,7.24
2017-12-26T12:32:48.815Z,7.22
2017-12-26T12:35:15.583Z,7.22
2017-12-26T12:37:42.878Z,7.27
2017-12-26T12:40:09.841Z,7.35
2017-12-26T12:42:36.698Z,7.36
2017-12-26T12:45:03.542Z,7.36
2017-12-26T12:47:30.841Z,7.44
2017-12-26T12:49:57.655Z,7.41
2017-12-26T12:52:25.355Z,7.44
2017-12-26T12:54:52.974Z,7.51
2017-12-26T12:57:19.820Z,7.48
2017-12-26T12:59:47.365Z,7.42
2017-12-26T13:02:14.238Z,7.43
2017-12-26T13:04:41.849Z,7.40
2017-12-26T13:07:09.415Z,7.44
2017-12-26T13:09:36.273Z,7.44
2017-12-26T13:12:03.105Z,7.44
2017-12-26T13:14:29.915Z,7.41
2017-12-26T13:16:56.728Z,7.37
2017-12-26T13:19:23.611Z,7.37
2017-12-26T13:21:51.182Z,7.39
2017-12-26T13:24:18.721Z,7.39
2017-12-26T13:26:45.535Z,7.37
2017-12-26T13:29:12.369Z,7.37
2017-12-26T13:31:39.246Z,7.37
2017-12-26T13:34:06.806Z,7.36
2017-12-26T13:36:33.619Z,7.44
2017-12-26T13:39:00.427Z,7.38
2017-12-26T13:41:27.971Z,7.41
2017-12-26T13:43:54.781Z,7.38
2017-12-26T13:46:21.555Z,7.38
2017-12-26T13:48:48.379Z,7.37
2017-12-26T13:51:15.184Z,7.38
2017-12-26T13:53:42.366Z,7.35
2017-12-26T13:56:10.553Z,7.39
2017-12-26T13:58:37.331Z,7.38
2017-12-26T14:01:04.196Z,7.36
2017-12-26T14:03:31.041Z,7.39
2017-12-26T14:05:57.876Z,7.38
2017-12-26T14:08:24.652Z,7.37
2017-12-26T14:10:51.523Z,7.37
2017-12-26T14:13:18.311Z,7.38
2017-12-26T14:15:45.159Z,7.37
2017-12-26T14:18:11.950Z,7.37
2017-12-26T14:20:38.792Z,7.36
2017-12-26T14:23:05.731Z,7.36
2017-12-26T14:25:32.578Z,7.35
2017-12-26T14:27:59.425Z,7.36
2017-12-26T14:30:26.991Z,7.37
2017-12-26T14:32:54.540Z,7.35
2017-12-26T14:35:21.371Z,7.34
2017-12-26T14:37:48.525Z,7.29
2017-12-26T14:40:15.324Z,7.30
2017-12-26T14:42:44.489Z,7.28
2017-12-26T14:45:11.420Z,7.29
2017-12-26T14:47:38.241Z,7.22
2017-12-26T14:50:05.057Z,7.24
2017-12-26T14:52:32.654Z,7.18
2017-12-26T14:54:59.461Z,7.20
2017-12-26T14:57:26.298Z,7.22
2017-12-26T14:59:53.155Z,7.22
2017-12-26T15:02:20.045Z,7.22
2017-12-26T15:04:46.923Z,7.19
2017-12-26T15:07:14.030Z,7.19
2017-12-26T15:09:40.864Z,7.19
2017-12-26T15:12:08.523Z,7.21
2017-12-26T15:14:35.430Z,7.17
2017-12-26T15:17:02.402Z,7.18
2017-12-26T15:19:29.249Z,7.19
2017-12-26T15:21:56.126Z,7.15
2017-12-26T15:24:23.684Z,7.16
2017-12-26T15:26:50.541Z,7.16
2017-12-26T15:29:19.077Z,7.18
2017-12-26T15:31:45.996Z,7.16
2017-12-26T15:34:12.765Z,7.10
2017-12-26T15:36:40.327Z,7.11
2017-12-26T15:39:07.715Z,7.12
2017-12-26T15:41:34.528Z,7.11
2017-12-26T15:44:01.331Z,7.09
2017-12-26T15:46:28.915Z,7.09
2017-12-26T15:48:56.484Z,7.07
2017-12-26T15:51:23.372Z,7.08
2017-12-26T15:53:50.226Z,7.09
2017-12-26T15:56:17.769Z,7.08
2017-12-26T15:58:45.928Z,7.10
2017-12-26T16:01:13.607Z,7.09
2017-12-26T16:03:40.440Z,7.08
2017-12-26T16:06:08.054Z,7.10
2017-12-26T16:08:34.901Z,7.07
2017-12-26T16:11:01.713Z,7.09
2017-12-26T16:13:28.653Z,7.06
2017-12-26T16:15:55.507Z,7.06
2017-12-26T16:18:23.220Z,7.04
2017-12-26T16:20:51.238Z,7.03
2017-12-26T16:23:18.091Z,6.93
2017-12-26T16:25:44.933Z,6.97
2017-12-26T16:28:11.748Z,7.00
2017-12-26T16:30:39.353Z,6.92
2017-12-26T16:33:06.358Z,6.96
2017-12-26T16:35:33.973Z,6.90
2017-12-26T16:38:00.798Z,6.89
2017-12-26T16:40:28.355Z,6.83
2017-12-26T16:42:55.166Z,6.89
2017-12-26T16:45:21.994Z,6.85
2017-12-26T16:47:49.569Z,6.91
2017-12-26T16:50:17.123Z,6.89
2017-12-26T16:52:46.410Z,6.85
2017-12-26T16:55:15.196Z,6.87
2017-12-26T16:57:42.180Z,6.83
2017-12-26T17:00:09.046Z,6.84
2017-12-26T17:02:35.889Z,6.87
2017-12-26T17:05:02.794Z,6.86
2017-12-26T17:07:29.637Z,6.87
2017-12-26T17:09:56.477Z,6.87
2017-12-26T17:12:23.459Z,6.80
2017-12-26T17:14:50.300Z,6.86
2017-12-26T17:17:17.185Z,6.81
2017-12-26T17:19:44.036Z,6.82
2017-12-26T17:22:10.873Z,6.74
2017-12-26T17:24:37.729Z,6.68
2017-12-26T17:27:04.570Z,6.81
2017-12-26T17:29:31.394Z,6.78
2017-12-26T17:31:58.206Z,6.72
2017-12-26T17:34:25.745Z,6.64
2017-12-26T17:36:52.586Z,6.64
2017-12-26T17:39:19.520Z,6.66
2017-12-26T17:41:46.452Z,6.63
2017-12-26T17:44:13.395Z,6.50
2017-12-26T17:46:40.264Z,6.56
2017-12-26T17:49:07.206Z,6.53
2017-12-26T17:51:34.326Z,6.53
2017-12-26T17:54:01.962Z,6.51
2017-12-26T17:56:28.898Z,6.55
2017-12-26T17:58:55.775Z,6.61
2017-12-26T18:01:22.796Z,6.60
2017-12-26T18:03:49.623Z,6.53
2017-12-26T18:06:16.597Z,6.53
2017-12-26T18:08:43.492Z,6.52
2017-12-26T18:11:11.703Z,6.53
2017-12-26T18:13:38.656Z,6.57
2017-12-26T18:16:05.546Z,6.57
2017-12-26T18:18:32.481Z,6.53
2017-12-26T18:20:59.685Z,6.49
2017-12-26T18:23:27.247Z,6.53
2017-12-26T18:25:54.118Z,6.57
2017-12-26T18:28:22.959Z,6.48
2017-12-26T18:30:49.835Z,6.53
2017-12-26T18:33:18.119Z,6.56
2017-12-26T18:35:45.273Z,6.54
2017-12-26T18:38:12.252Z,6.55
2017-12-26T18:40:39.151Z,6.52
2017-12-26T18:43:06.030Z,6.53
2017-12-26T18:45:32.951Z,6.52
2017-12-26T18:48:00.521Z,6.51
2017-12-26T18:50:28.381Z,6.53
2017-12-26T18:52:55.978Z,6.47
2017-12-26T18:55:22.835Z,6.48
2017-12-26T18:57:49.713Z,6.44
2017-12-26T19:00:16.644Z,6.53
2017-12-26T19:02:43.495Z,6.52
2017-12-26T19:05:10.562Z,6.48
2017-12-26T19:07:37.547Z,6.50
2017-12-26T19:10:04.337Z,6.50
2017-12-26T19:12:32.024Z,6.47
2017-12-26T19:14:59.026Z,6.44
2017-12-26T19:17:25.799Z,6.42
2017-12-26T19:19:52.715Z,6.34
2017-12-26T19:22:19.564Z,6.34
2017-12-26T19:24:47.167Z,6.40
2017-12-26T19:27:14.031Z,6.39
2017-12-26T19:29:40.944Z,6.38
2017-12-26T19:32:08.007Z,6.22
2017-12-26T19:34:34.810Z,6.15
2017-12-26T19:37:01.611Z,6.12
2017-12-26T19:39:28.571Z,6.25
2017-12-26T19:41:55.414Z,6.14
2017-12-26T19:44:22.617Z,6.08
2017-12-26T19:46:49.470Z,6.10
2017-12-26T19:49:16.359Z,6.18
2017-12-26T19:51:43.233Z,5.97
2017-12-26T19:54:10.850Z,6.07
2017-12-26T19:56:37.792Z,5.89
2017-12-26T19:59:04.756Z,6.06
2017-12-26T20:01:31.982Z,5.87
2017-12-26T20:03:58.972Z,5.80
2017-12-26T20:06:27.453Z,5.84
2017-12-26T20:08:55.155Z,5.87
2017-12-26T20:11:23.464Z,5.95
2017-12-26T20:13:50.373Z,5.76
2017-12-26T20:16:17.516Z,5.83
2017-12-26T20:18:44.965Z,5.85
2017-12-26T20:21:12.447Z,5.77
2017-12-26T20:23:41.053Z,5.76
2017-12-26T20:26:08.618Z,5.75
2017-12-26T20:28:42.645Z,5.64
2017-12-26T20:31:09.441Z,5.70
2017-12-26T20:33:38.036Z,5.70
2017-12-26T20:36:06.883Z,5.69
2017-12-26T20:38:35.709Z,5.58
2017-12-26T20:41:04.247Z,5.68
2017-12-26T20:43:32.293Z,5.65
2017-12-26T20:46:00.927Z,5.67
2017-12-26T20:48:29.419Z,5.65
2017-12-26T20:50:58.019Z,5.59
2017-12-26T20:53:26.678Z,5.57
2017-12-26T20:55:55.909Z,5.58
2017-12-26T20:58:24.756Z,5.62
2017-12-26T21:00:53.700Z,5.67
2017-12-26T21:03:22.437Z,5.62
2017-12-26T21:05:53.085Z,5.63
2017-12-26T21:08:21.764Z,5.65
2017-12-26T21:10:50.728Z,5.49
2017-12-26T21:13:20.494Z,5.44
2017-12-26T21:15:49.552Z,5.59
2017-12-26T21:18:19.198Z,5.41
2017-12-26T21:20:48.891Z,5.63
2017-12-26T21:23:17.782Z,5.55
2017-12-26T21:25:46.449Z,5.59
2017-12-26T21:28:15.864Z,5.58
2017-12-26T21:30:45.284Z,5.43
2017-12-26T21:33:13.999Z,5.51
2017-12-26T21:35:42.806Z,5.41
2017-12-26T21:38:11.938Z,5.41
2017-12-26T21:40:40.865Z,5.49
2017-12-26T21:43:09.723Z,5.53
2017-12-26T21:45:39.384Z,5.53
2017-12-26T21:48:07.991Z,5.46
2017-12-26T21:50:36.600Z,5.57
2017-12-26T21:53:05.400Z,5.52
2017-12-26T21:55:34.547Z,5.47
2017-12-26T21:58:11.785Z,5.49
2017-12-26T22:00:40.073Z,5.53
2017-12-26T22:03:09.665Z,5.54
2017-12-26T22:05:38.600Z,5.52
2017-12-26T22:08:08.322Z,5.58
2017-12-26T22:10:37.754Z,5.61
2017-12-26T22:13:06.804Z,5.56
2017-12-26T22:15:35.608Z,5.55
2017-12-26T22:18:04.893Z,5.65
2017-12-26T22:20:32.265Z,5.48
2017-12-26T22:22:59.632Z,5.57
2017-12-26T22:25:27.522Z,5.58
2017-12-26T22:27:55.132Z,5.57
2017-12-26T22:30:22.024Z,5.57
2017-12-26T22:32:49.536Z,5.43
2017-12-26T22:35:16.423Z,5.55
2017-12-26T22:37:43.280Z,5.54
2017-12-26T22:40:10.232Z,5.60
2017-12-26T22:42:37.049Z,5.49
2017-12-26T22:45:04.660Z,5.64
2017-12-26T22:47:31.605Z,5.57
2017-12-26T22:49:58.409Z,5.62
2017-12-26T22:52:25.352Z,5.59
2017-12-26T22:54:54.997Z,5.64
2017-12-26T22:57:21.929Z,5.61
2017-12-26T22:59:49.107Z,5.63
2017-12-26T23:02:15.919Z,5.64
2017-12-26T23:04:42.718Z,5.58
2017-12-26T23:07:11.589Z,5.53
2017-12-26T23:09:40.378Z,5.62
2017-12-26T23:12:09.253Z,5.68
2017-12-26T23:14:42.130Z,5.68
2017-12-26T23:17:15.078Z,5.70
2017-12-26T23:19:48.059Z,5.65
2017-12-26T23:22:16.150Z,5.68
2017-12-26T23:24:48.926Z,5.74
2017-12-26T23:27:21.839Z,5.67
2017-12-26T23:29:54.757Z,5.70
2017-12-26T23:32:27.644Z,5.77
2017-12-26T23:35:01.868Z,5.73
2017-12-26T23:37:34.823Z,5.79
2017-12-26T23:40:08.781Z,5.75
2017-12-26T23:42:41.587Z,5.80
2017-12-26T23:45:15.837Z,5.79
2017-12-26T23:47:49.550Z,5.78
2017-12-26T23:50:22.555Z,5.82
2017-12-26T23:52:55.574Z,5.79
2017-12-26T23:55:29.224Z,5.83
2017-12-26T23:58:02.856Z,5.73
